sensor_id;sensor_type;location;lat;lon;timestamp;P1;durP1;ratioP1;P2;durP2;ratioP2
44434;SDS011;30138;20.964;105.830;2023-06-26T00:02:28;5.18;;;4.15;;
44434;SDS011;30138;20.964;105.830;2023-06-26T00:07:35;4.70;;;4.18;;
44434;SDS011;30138;20.964;105.830;2023-06-26T00:12:43;4.47;;;3.80;;
44434;SDS011;30138;20.964;105.830;2023-06-26T00:17:50;4.13;;;3.72;;
44434;SDS011;30138;20.964;105.830;2023-06-26T00:22:57;4.50;;;3.65;;
44434;SDS011;30138;20.964;105.830;2023-06-26T00:28:08;3.42;;;3.10;;
44434;SDS011;30138;20.964;105.830;2023-06-26T00:33:14;3.75;;;3.28;;
44434;SDS011;30138;20.964;105.830;2023-06-26T00:38:21;4.00;;;3.50;;
44434;SDS011;30138;20.964;105.830;2023-06-26T00:43:29;4.18;;;3.60;;
44434;SDS011;30138;20.964;105.830;2023-06-26T00:48:35;3.47;;;3.17;;
44434;SDS011;30138;20.964;105.830;2023-06-26T00:53:42;4.05;;;3.33;;
44434;SDS011;30138;20.964;105.830;2023-06-26T00:58:54;3.53;;;3.20;;
44434;SDS011;30138;20.964;105.830;2023-06-26T01:04:01;3.40;;;3.10;;
44434;SDS011;30138;20.964;105.830;2023-06-26T01:09:08;3.40;;;3.10;;
44434;SDS011;30138;20.964;105.830;2023-06-26T01:14:16;3.15;;;2.85;;
44434;SDS011;30138;20.964;105.830;2023-06-26T01:19:23;2.90;;;2.63;;
44434;SDS011;30138;20.964;105.830;2023-06-26T01:24:32;3.25;;;2.70;;
44434;SDS011;30138;20.964;105.830;2023-06-26T01:29:43;2.97;;;2.53;;
44434;SDS011;30138;20.964;105.830;2023-06-26T01:34:51;2.90;;;2.42;;
44434;SDS011;30138;20.964;105.830;2023-06-26T01:39:58;2.97;;;2.55;;
44434;SDS011;30138;20.964;105.830;2023-06-26T01:45:10;5.65;;;2.35;;
44434;SDS011;30138;20.964;105.830;2023-06-26T01:50:22;2.40;;;2.20;;
44434;SDS011;30138;20.964;105.830;2023-06-26T01:55:34;2.40;;;2.20;;
44434;SDS011;30138;20.964;105.830;2023-06-26T02:00:46;3.05;;;2.25;;
44434;SDS011;30138;20.964;105.830;2023-06-26T02:05:53;3.05;;;2.38;;
44434;SDS011;30138;20.964;105.830;2023-06-26T02:11:02;2.20;;;2.00;;
44434;SDS011;30138;20.964;105.830;2023-06-26T02:16:10;2.65;;;2.45;;
44434;SDS011;30138;20.964;105.830;2023-06-26T02:21:17;2.70;;;1.95;;
44434;SDS011;30138;20.964;105.830;2023-06-26T02:26:23;3.22;;;2.08;;
44434;SDS011;30138;20.964;105.830;2023-06-26T02:31:31;2.47;;;2.10;;
44434;SDS011;30138;20.964;105.830;2023-06-26T02:36:38;2.75;;;2.20;;
44434;SDS011;30138;20.964;105.830;2023-06-26T02:41:45;2.05;;;1.80;;
44434;SDS011;30138;20.964;105.830;2023-06-26T02:46:53;1.88;;;1.77;;
44434;SDS011;30138;20.964;105.830;2023-06-26T02:52:00;3.35;;;2.00;;
44434;SDS011;30138;20.964;105.830;2023-06-26T02:57:08;1.85;;;1.75;;
44434;SDS011;30138;20.964;105.830;2023-06-26T03:02:19;1.67;;;1.58;;
44434;SDS011;30138;20.964;105.830;2023-06-26T03:12:36;4.05;;;1.80;;
44434;SDS011;30138;20.964;105.830;2023-06-26T03:17:46;1.92;;;1.83;;
44434;SDS011;30138;20.964;105.830;2023-06-26T03:22:59;1.90;;;1.80;;
44434;SDS011;30138;20.964;105.830;2023-06-26T03:28:06;2.08;;;1.77;;
44434;SDS011;30138;20.964;105.830;2023-06-26T03:33:15;2.25;;;1.85;;
44434;SDS011;30138;20.964;105.830;2023-06-26T03:38:22;2.00;;;1.90;;
44434;SDS011;30138;20.964;105.830;2023-06-26T03:43:31;2.00;;;1.90;;
44434;SDS011;30138;20.964;105.830;2023-06-26T03:48:52;2.10;;;1.90;;
44434;SDS011;30138;20.964;105.830;2023-06-26T03:53:58;1.77;;;1.67;;
44434;SDS011;30138;20.964;105.830;2023-06-26T03:59:05;1.98;;;1.80;;
44434;SDS011;30138;20.964;105.830;2023-06-26T04:04:13;2.00;;;1.80;;
44434;SDS011;30138;20.964;105.830;2023-06-26T04:09:20;2.10;;;1.90;;
44434;SDS011;30138;20.964;105.830;2023-06-26T04:14:27;2.17;;;1.80;;
44434;SDS011;30138;20.964;105.830;2023-06-26T04:19:35;2.50;;;2.00;;
44434;SDS011;30138;20.964;105.830;2023-06-26T04:24:42;1.98;;;1.77;;
44434;SDS011;30138;20.964;105.830;2023-06-26T04:29:48;2.67;;;1.98;;
44434;SDS011;30138;20.964;105.830;2023-06-26T04:34:57;1.80;;;1.70;;
44434;SDS011;30138;20.964;105.830;2023-06-26T04:40:05;1.70;;;1.60;;
44434;SDS011;30138;20.964;105.830;2023-06-26T04:45:13;1.98;;;1.80;;
44434;SDS011;30138;20.964;105.830;2023-06-26T04:50:22;1.70;;;1.45;;
44434;SDS011;30138;20.964;105.830;2023-06-26T04:55:30;1.80;;;1.70;;
44434;SDS011;30138;20.964;105.830;2023-06-26T05:00:36;1.73;;;1.60;;
44434;SDS011;30138;20.964;105.830;2023-06-26T05:05:46;1.85;;;1.70;;
44434;SDS011;30138;20.964;105.830;2023-06-26T05:10:52;2.00;;;1.80;;
44434;SDS011;30138;20.964;105.830;2023-06-26T05:16:00;2.47;;;1.55;;
44434;SDS011;30138;20.964;105.830;2023-06-26T05:21:08;2.50;;;1.65;;
44434;SDS011;30138;20.964;105.830;2023-06-26T05:26:15;1.60;;;1.50;;
44434;SDS011;30138;20.964;105.830;2023-06-26T05:31:22;1.75;;;1.65;;
44434;SDS011;30138;20.964;105.830;2023-06-26T05:36:31;1.77;;;1.65;;
44434;SDS011;30138;20.964;105.830;2023-06-26T05:41:40;1.50;;;1.40;;
44434;SDS011;30138;20.964;105.830;2023-06-26T05:46:48;1.98;;;1.77;;
44434;SDS011;30138;20.964;105.830;2023-06-26T05:51:57;1.55;;;1.45;;
44434;SDS011;30138;20.964;105.830;2023-06-26T05:57:05;1.40;;;1.30;;
44434;SDS011;30138;20.964;105.830;2023-06-26T06:02:12;1.63;;;1.52;;
44434;SDS011;30138;20.964;105.830;2023-06-26T06:07:21;1.58;;;1.48;;
44434;SDS011;30138;20.964;105.830;2023-06-26T06:12:27;1.83;;;1.52;;
44434;SDS011;30138;20.964;105.830;2023-06-26T06:17:34;1.80;;;1.70;;
44434;SDS011;30138;20.964;105.830;2023-06-26T06:22:43;2.20;;;2.00;;
44434;SDS011;30138;20.964;105.830;2023-06-26T06:27:50;5.70;;;2.70;;
44434;SDS011;30138;20.964;105.830;2023-06-26T06:32:57;3.97;;;2.90;;
44434;SDS011;30138;20.964;105.830;2023-06-26T06:38:06;3.42;;;2.70;;
44434;SDS011;30138;20.964;105.830;2023-06-26T06:43:13;2.30;;;2.10;;
44434;SDS011;30138;20.964;105.830;2023-06-26T06:48:20;2.80;;;2.28;;
44434;SDS011;30138;20.964;105.830;2023-06-26T06:53:30;2.45;;;2.25;;
44434;SDS011;30138;20.964;105.830;2023-06-26T06:58:37;3.30;;;3.00;;
44434;SDS011;30138;20.964;105.830;2023-06-26T07:03:45;3.72;;;2.92;;
44434;SDS011;30138;20.964;105.830;2023-06-26T07:08:53;3.45;;;3.15;;
44434;SDS011;30138;20.964;105.830;2023-06-26T07:14:00;2.67;;;2.47;;
44434;SDS011;30138;20.964;105.830;2023-06-26T07:19:06;4.25;;;2.70;;
44434;SDS011;30138;20.964;105.830;2023-06-26T07:24:15;2.67;;;2.42;;
44434;SDS011;30138;20.964;105.830;2023-06-26T07:29:22;2.67;;;2.42;;
44434;SDS011;30138;20.964;105.830;2023-06-26T07:34:28;2.95;;;2.60;;
44434;SDS011;30138;20.964;105.830;2023-06-26T07:39:37;2.78;;;2.45;;
44434;SDS011;30138;20.964;105.830;2023-06-26T07:44:43;2.83;;;2.45;;
44434;SDS011;30138;20.964;105.830;2023-06-26T07:49:49;2.42;;;1.98;;
44434;SDS011;30138;20.964;105.830;2023-06-26T07:54:57;3.03;;;2.05;;
44434;SDS011;30138;20.964;105.830;2023-06-26T08:00:05;1.83;;;1.70;;
44434;SDS011;30138;20.964;105.830;2023-06-26T08:10:23;2.55;;;2.00;;
44434;SDS011;30138;20.964;105.830;2023-06-26T08:15:30;2.75;;;1.88;;
44434;SDS011;30138;20.964;105.830;2023-06-26T08:20:37;1.85;;;1.65;;
44434;SDS011;30138;20.964;105.830;2023-06-26T08:25:45;2.00;;;1.77;;
44434;SDS011;30138;20.964;105.830;2023-06-26T08:30:52;1.75;;;1.60;;
44434;SDS011;30138;20.964;105.830;2023-06-26T08:35:58;1.77;;;1.67;;
44434;SDS011;30138;20.964;105.830;2023-06-26T08:41:06;1.55;;;1.45;;
44434;SDS011;30138;20.964;105.830;2023-06-26T08:46:13;1.63;;;1.52;;
44434;SDS011;30138;20.964;105.830;2023-06-26T08:51:21;2.03;;;1.45;;
44434;SDS011;30138;20.964;105.830;2023-06-26T08:56:31;1.52;;;1.42;;
44434;SDS011;30138;20.964;105.830;2023-06-26T09:01:43;3.03;;;1.92;;
44434;SDS011;30138;20.964;105.830;2023-06-26T09:06:50;3.85;;;3.10;;
44434;SDS011;30138;20.964;105.830;2023-06-26T09:11:59;4.10;;;3.70;;
44434;SDS011;30138;20.964;105.830;2023-06-26T09:17:06;5.35;;;3.90;;
44434;SDS011;30138;20.964;105.830;2023-06-26T09:22:13;6.60;;;3.60;;
44434;SDS011;30138;20.964;105.830;2023-06-26T09:27:22;3.80;;;3.50;;
44434;SDS011;30138;20.964;105.830;2023-06-26T09:32:29;3.50;;;3.05;;
44434;SDS011;30138;20.964;105.830;2023-06-26T09:37:38;3.40;;;3.10;;
44434;SDS011;30138;20.964;105.830;2023-06-26T09:42:46;3.08;;;2.78;;
44434;SDS011;30138;20.964;105.830;2023-06-26T09:47:53;3.10;;;2.80;;
44434;SDS011;30138;20.964;105.830;2023-06-26T09:53:07;2.97;;;2.70;;
44434;SDS011;30138;20.964;105.830;2023-06-26T09:58:16;2.95;;;2.53;;
44434;SDS011;30138;20.964;105.830;2023-06-26T10:03:23;2.67;;;2.47;;
44434;SDS011;30138;20.964;105.830;2023-06-26T10:08:30;2.60;;;2.40;;
44434;SDS011;30138;20.964;105.830;2023-06-26T10:13:42;2.50;;;2.30;;
44434;SDS011;30138;20.964;105.830;2023-06-26T10:18:51;2.60;;;2.40;;
44434;SDS011;30138;20.964;105.830;2023-06-26T10:24:03;2.30;;;2.13;;
44434;SDS011;30138;20.964;105.830;2023-06-26T10:29:13;2.20;;;2.00;;
44434;SDS011;30138;20.964;105.830;2023-06-26T10:34:21;2.47;;;2.25;;
44434;SDS011;30138;20.964;105.830;2023-06-26T10:39:33;2.42;;;2.22;;
44434;SDS011;30138;20.964;105.830;2023-06-26T10:44:54;1.85;;;1.75;;
44434;SDS011;30138;20.964;105.830;2023-06-26T10:50:17;1.85;;;1.75;;
44434;SDS011;30138;20.964;105.830;2023-06-26T10:55:28;2.33;;;2.13;;
44434;SDS011;30138;20.964;105.830;2023-06-26T11:00:37;2.42;;;1.92;;
44434;SDS011;30138;20.964;105.830;2023-06-26T11:06:08;2.28;;;2.10;;
44434;SDS011;30138;20.964;105.830;2023-06-26T11:11:16;2.22;;;2.00;;
44434;SDS011;30138;20.964;105.830;2023-06-26T11:16:25;2.03;;;1.80;;
44434;SDS011;30138;20.964;105.830;2023-06-26T11:21:33;2.17;;;2.03;;
44434;SDS011;30138;20.964;105.830;2023-06-26T11:26:40;2.20;;;2.00;;
44434;SDS011;30138;20.964;105.830;2023-06-26T11:31:55;2.00;;;1.90;;
44434;SDS011;30138;20.964;105.830;2023-06-26T11:37:07;2.35;;;2.13;;
44434;SDS011;30138;20.964;105.830;2023-06-26T11:42:14;2.38;;;2.05;;
44434;SDS011;30138;20.964;105.830;2023-06-26T11:47:23;2.00;;;1.80;;
44434;SDS011;30138;20.964;105.830;2023-06-26T11:52:30;1.90;;;1.80;;
44434;SDS011;30138;20.964;105.830;2023-06-26T11:57:38;2.88;;;2.20;;
44434;SDS011;30138;20.964;105.830;2023-06-26T12:02:46;3.17;;;2.17;;
44434;SDS011;30138;20.964;105.830;2023-06-26T12:07:54;2.25;;;2.00;;
44434;SDS011;30138;20.964;105.830;2023-06-26T12:13:03;2.20;;;2.00;;
44434;SDS011;30138;20.964;105.830;2023-06-26T12:18:11;2.22;;;1.88;;
44434;SDS011;30138;20.964;105.830;2023-06-26T12:23:18;2.20;;;2.00;;
44434;SDS011;30138;20.964;105.830;2023-06-26T12:28:24;2.03;;;1.90;;
44434;SDS011;30138;20.964;105.830;2023-06-26T12:33:32;2.15;;;1.95;;
44434;SDS011;30138;20.964;105.830;2023-06-26T12:38:38;2.17;;;1.98;;
44434;SDS011;30138;20.964;105.830;2023-06-26T12:43:45;2.40;;;1.98;;
44434;SDS011;30138;20.964;105.830;2023-06-26T12:48:54;1.75;;;1.65;;
44434;SDS011;30138;20.964;105.830;2023-06-26T12:54:00;2.25;;;2.05;;
44434;SDS011;30138;20.964;105.830;2023-06-26T12:59:07;2.20;;;2.00;;
44434;SDS011;30138;20.964;105.830;2023-06-26T13:04:15;1.80;;;1.70;;
44434;SDS011;30138;20.964;105.830;2023-06-26T13:09:22;2.90;;;2.13;;
44434;SDS011;30138;20.964;105.830;2023-06-26T13:14:30;2.58;;;1.83;;
44434;SDS011;30138;20.964;105.830;2023-06-26T13:19:38;4.00;;;3.05;;
44434;SDS011;30138;20.964;105.830;2023-06-26T13:24:45;4.93;;;3.75;;
44434;SDS011;30138;20.964;105.830;2023-06-26T13:29:52;7.63;;;3.45;;
44434;SDS011;30138;20.964;105.830;2023-06-26T13:35:01;3.55;;;2.83;;
44434;SDS011;30138;20.964;105.830;2023-06-26T13:40:09;4.72;;;3.97;;
44434;SDS011;30138;20.964;105.830;2023-06-26T13:45:16;6.82;;;3.60;;
44434;SDS011;30138;20.964;105.830;2023-06-26T13:50:25;3.92;;;3.45;;
44434;SDS011;30138;20.964;105.830;2023-06-26T13:55:31;5.05;;;3.50;;
44434;SDS011;30138;20.964;105.830;2023-06-26T14:00:39;3.90;;;3.47;;
44434;SDS011;30138;20.964;105.830;2023-06-26T14:05:49;3.35;;;3.05;;
44434;SDS011;30138;20.964;105.830;2023-06-26T14:10:56;3.78;;;3.03;;
44434;SDS011;30138;20.964;105.830;2023-06-26T14:16:03;3.10;;;2.80;;
44434;SDS011;30138;20.964;105.830;2023-06-26T14:21:12;3.20;;;2.72;;
44434;SDS011;30138;20.964;105.830;2023-06-26T14:26:19;3.28;;;2.55;;
44434;SDS011;30138;20.964;105.830;2023-06-26T14:31:25;6.38;;;4.60;;
44434;SDS011;30138;20.964;105.830;2023-06-26T14:36:34;10.90;;;5.45;;
44434;SDS011;30138;20.964;105.830;2023-06-26T14:41:41;5.53;;;4.60;;
44434;SDS011;30138;20.964;105.830;2023-06-26T14:46:52;5.10;;;4.33;;
44434;SDS011;30138;20.964;105.830;2023-06-26T14:52:01;8.55;;;4.90;;
44434;SDS011;30138;20.964;105.830;2023-06-26T14:57:08;7.50;;;5.90;;
44434;SDS011;30138;20.964;105.830;2023-06-26T15:02:16;8.00;;;5.20;;
44434;SDS011;30138;20.964;105.830;2023-06-26T15:07:25;6.90;;;6.03;;
44434;SDS011;30138;20.964;105.830;2023-06-26T15:12:32;6.07;;;5.35;;
44434;SDS011;30138;20.964;105.830;2023-06-26T15:17:39;6.13;;;4.88;;
44434;SDS011;30138;20.964;105.830;2023-06-26T15:22:50;7.18;;;4.68;;
44434;SDS011;30138;20.964;105.830;2023-06-26T15:27:57;5.33;;;4.60;;
44434;SDS011;30138;20.964;105.830;2023-06-26T15:33:04;4.70;;;4.20;;
44434;SDS011;30138;20.964;105.830;2023-06-26T15:38:13;5.18;;;4.47;;
44434;SDS011;30138;20.964;105.830;2023-06-26T15:43:19;4.57;;;4.18;;
44434;SDS011;30138;20.964;105.830;2023-06-26T15:48:26;4.47;;;4.07;;
44434;SDS011;30138;20.964;105.830;2023-06-26T15:53:38;5.82;;;4.18;;
44434;SDS011;30138;20.964;105.830;2023-06-26T15:58:45;4.20;;;3.80;;
44434;SDS011;30138;20.964;105.830;2023-06-26T16:03:51;4.57;;;3.60;;
44434;SDS011;30138;20.964;105.830;2023-06-26T16:09:01;4.20;;;3.80;;
44434;SDS011;30138;20.964;105.830;2023-06-26T16:14:07;5.10;;;3.30;;
44434;SDS011;30138;20.964;105.830;2023-06-26T16:19:13;5.63;;;3.47;;
44434;SDS011;30138;20.964;105.830;2023-06-26T16:24:22;3.95;;;3.38;;
44434;SDS011;30138;20.964;105.830;2023-06-26T16:29:29;4.30;;;3.67;;
44434;SDS011;30138;20.964;105.830;2023-06-26T16:34:35;3.25;;;2.97;;
44434;SDS011;30138;20.964;105.830;2023-06-26T16:39:44;3.55;;;3.17;;
44434;SDS011;30138;20.964;105.830;2023-06-26T16:44:51;3.58;;;3.05;;
44434;SDS011;30138;20.964;105.830;2023-06-26T16:49:58;4.15;;;3.17;;
44434;SDS011;30138;20.964;105.830;2023-06-26T16:55:07;4.13;;;3.15;;
44434;SDS011;30138;20.964;105.830;2023-06-26T17:00:14;4.82;;;4.10;;
44434;SDS011;30138;20.964;105.830;2023-06-26T17:05:21;6.68;;;4.78;;
44434;SDS011;30138;20.964;105.830;2023-06-26T17:10:29;5.93;;;4.45;;
44434;SDS011;30138;20.964;105.830;2023-06-26T17:15:37;5.13;;;4.00;;
44434;SDS011;30138;20.964;105.830;2023-06-26T17:20:44;9.20;;;4.20;;
44434;SDS011;30138;20.964;105.830;2023-06-26T17:25:53;4.70;;;3.90;;
44434;SDS011;30138;20.964;105.830;2023-06-26T17:31:01;4.05;;;3.40;;
44434;SDS011;30138;20.964;105.830;2023-06-26T17:36:07;3.42;;;3.13;;
44434;SDS011;30138;20.964;105.830;2023-06-26T17:41:17;7.72;;;5.00;;
44434;SDS011;30138;20.964;105.830;2023-06-26T17:46:24;10.55;;;6.57;;
44434;SDS011;30138;20.964;105.830;2023-06-26T17:51:31;10.15;;;6.05;;
44434;SDS011;30138;20.964;105.830;2023-06-26T17:56:40;7.38;;;5.35;;
44434;SDS011;30138;20.964;105.830;2023-06-26T18:01:48;5.47;;;4.78;;
44434;SDS011;30138;20.964;105.830;2023-06-26T18:06:56;5.75;;;4.80;;
44434;SDS011;30138;20.964;105.830;2023-06-26T18:12:04;6.32;;;4.93;;
44434;SDS011;30138;20.964;105.830;2023-06-26T18:17:13;5.10;;;4.60;;
44434;SDS011;30138;20.964;105.830;2023-06-26T18:22:19;6.85;;;4.32;;
44434;SDS011;30138;20.964;105.830;2023-06-26T18:27:31;7.28;;;4.90;;
44434;SDS011;30138;20.964;105.830;2023-06-26T18:32:38;5.53;;;4.75;;
44434;SDS011;30138;20.964;105.830;2023-06-26T18:37:46;6.18;;;4.43;;
44434;SDS011;30138;20.964;105.830;2023-06-26T18:42:55;5.60;;;4.50;;
44434;SDS011;30138;20.964;105.830;2023-06-26T18:48:02;5.65;;;4.43;;
44434;SDS011;30138;20.964;105.830;2023-06-26T18:53:21;5.63;;;4.53;;
44434;SDS011;30138;20.964;105.830;2023-06-26T18:58:49;7.13;;;4.47;;
44434;SDS011;30138;20.964;105.830;2023-06-26T19:03:56;5.45;;;4.20;;
44434;SDS011;30138;20.964;105.830;2023-06-26T19:09:04;6.45;;;4.32;;
44434;SDS011;30138;20.964;105.830;2023-06-26T19:14:13;7.07;;;4.68;;
44434;SDS011;30138;20.964;105.830;2023-06-26T19:19:20;5.88;;;4.40;;
44434;SDS011;30138;20.964;105.830;2023-06-26T19:24:27;5.70;;;4.00;;
44434;SDS011;30138;20.964;105.830;2023-06-26T19:29:35;6.60;;;4.20;;
44434;SDS011;30138;20.964;105.830;2023-06-26T19:34:42;6.53;;;4.00;;
44434;SDS011;30138;20.964;105.830;2023-06-26T19:39:48;4.97;;;3.63;;
44434;SDS011;30138;20.964;105.830;2023-06-26T19:44:57;6.03;;;4.07;;
44434;SDS011;30138;20.964;105.830;2023-06-26T19:50:05;5.30;;;3.67;;
44434;SDS011;30138;20.964;105.830;2023-06-26T19:55:14;5.00;;;3.72;;
44434;SDS011;30138;20.964;105.830;2023-06-26T20:00:22;4.90;;;4.03;;
44434;SDS011;30138;20.964;105.830;2023-06-26T20:05:29;5.07;;;3.40;;
44434;SDS011;30138;20.964;105.830;2023-06-26T20:10:36;7.20;;;3.80;;
44434;SDS011;30138;20.964;105.830;2023-06-26T20:15:44;6.38;;;4.00;;
44434;SDS011;30138;20.964;105.830;2023-06-26T20:20:51;4.10;;;3.20;;
44434;SDS011;30138;20.964;105.830;2023-06-26T20:25:58;5.15;;;3.58;;
44434;SDS011;30138;20.964;105.830;2023-06-26T20:31:06;5.05;;;3.20;;
44434;SDS011;30138;20.964;105.830;2023-06-26T20:36:13;4.78;;;3.67;;
44434;SDS011;30138;20.964;105.830;2023-06-26T20:41:20;4.60;;;3.38;;
44434;SDS011;30138;20.964;105.830;2023-06-26T20:46:29;5.68;;;3.63;;
44434;SDS011;30138;20.964;105.830;2023-06-26T20:51:38;4.50;;;3.63;;
44434;SDS011;30138;20.964;105.830;2023-06-26T20:56:45;5.85;;;3.03;;
44434;SDS011;30138;20.964;105.830;2023-06-26T21:01:53;4.75;;;3.42;;
44434;SDS011;30138;20.964;105.830;2023-06-26T21:07:00;3.88;;;3.10;;
44434;SDS011;30138;20.964;105.830;2023-06-26T21:12:07;4.15;;;3.13;;
44434;SDS011;30138;20.964;105.830;2023-06-26T21:17:17;4.22;;;3.33;;
44434;SDS011;30138;20.964;105.830;2023-06-26T21:22:24;4.20;;;3.33;;
44434;SDS011;30138;20.964;105.830;2023-06-26T21:27:31;4.00;;;3.13;;
44434;SDS011;30138;20.964;105.830;2023-06-26T21:32:40;4.00;;;3.03;;
44434;SDS011;30138;20.964;105.830;2023-06-26T21:37:47;3.55;;;3.20;;
44434;SDS011;30138;20.964;105.830;2023-06-26T21:42:53;4.18;;;3.17;;
44434;SDS011;30138;20.964;105.830;2023-06-26T21:48:01;3.58;;;3.17;;
44434;SDS011;30138;20.964;105.830;2023-06-26T21:53:08;3.90;;;3.20;;
44434;SDS011;30138;20.964;105.830;2023-06-26T21:58:16;3.33;;;2.58;;
44434;SDS011;30138;20.964;105.830;2023-06-26T22:03:24;4.22;;;3.42;;
44434;SDS011;30138;20.964;105.830;2023-06-26T22:08:31;4.38;;;3.55;;
44434;SDS011;30138;20.964;105.830;2023-06-26T22:13:37;3.75;;;3.30;;
44434;SDS011;30138;20.964;105.830;2023-06-26T22:18:50;3.30;;;3.00;;
44434;SDS011;30138;20.964;105.830;2023-06-26T22:23:57;3.05;;;2.75;;
44434;SDS011;30138;20.964;105.830;2023-06-26T22:29:03;4.70;;;3.45;;
44434;SDS011;30138;20.964;105.830;2023-06-26T22:34:13;5.22;;;3.80;;
44434;SDS011;30138;20.964;105.830;2023-06-26T22:39:20;4.85;;;3.50;;
44434;SDS011;30138;20.964;105.830;2023-06-26T22:44:27;4.90;;;3.25;;
44434;SDS011;30138;20.964;105.830;2023-06-26T22:49:37;4.03;;;3.40;;
44434;SDS011;30138;20.964;105.830;2023-06-26T22:54:43;3.55;;;3.20;;
44434;SDS011;30138;20.964;105.830;2023-06-26T22:59:50;3.50;;;2.90;;
44434;SDS011;30138;20.964;105.830;2023-06-26T23:04:58;3.45;;;3.10;;
44434;SDS011;30138;20.964;105.830;2023-06-26T23:10:06;3.10;;;2.72;;
44434;SDS011;30138;20.964;105.830;2023-06-26T23:15:14;3.15;;;2.85;;
44434;SDS011;30138;20.964;105.830;2023-06-26T23:20:23;3.00;;;2.70;;
44434;SDS011;30138;20.964;105.830;2023-06-26T23:25:31;3.53;;;2.80;;
44434;SDS011;30138;20.964;105.830;2023-06-26T23:30:38;2.97;;;2.70;;
44434;SDS011;30138;20.964;105.830;2023-06-26T23:35:46;3.15;;;2.75;;
44434;SDS011;30138;20.964;105.830;2023-06-26T23:40:55;3.27;;;2.83;;
44434;SDS011;30138;20.964;105.830;2023-06-26T23:46:03;2.58;;;2.38;;
44434;SDS011;30138;20.964;105.830;2023-06-26T23:51:13;2.63;;;2.20;;
44434;SDS011;30138;20.964;105.830;2023-06-26T23:56:19;2.90;;;2.50;;
